RÉSULTATS    Semi Marathon de Chartres - Édition du 19/03/2017


Vous pouvez changer la distance ici.

Vous pouvez changer la distance ici.

Classement PDF Général Classement PDF Alphabétique /results/<span class='glyphicon glyphicon-picture'></span> Classement Temps Réel - Temps Puce

650 participants - 385 Hommes - 265 Femmes
163 licenciés (25%) - 487 non-licenciés (75%)

Temps moyen : 00:52:38




Pos. Temps Nom - Prénom Club Dossard Catégorie km/h Temps Reel
251 00:50:27 SEGUIN Eva ES JOUY SAINT PREST 1516 CAF (1 / 3) 11.9 00:50:25
280 00:51:26 LEONETTI Marion ES MAINTENON PIERRE ATHLE 1102 CAF (2 / 3) 11.6 00:51:19
451 00:56:54 LIROT Lucie 1153 CAF (3 / 3) 10.6 00:56:29
65 00:40:42 LEPAGE Paul ES MAINTENON PIERRE ATHLE 1266 CAM (1 / 12) 14.7 00:40:42
317 00:52:40 DEPEINT Lucas S/L LUCE MAINVILLIERS PTT ATHL 1335 CAM (10 / 12) 11.4 00:52:32
450 00:56:54 CLAIRON Nathan 1785 CAM (11 / 12) 10.6 00:56:29
489 00:58:05 SINEAU Antoine 1783 CAM (12 / 12) 10.3 00:57:51
80 00:41:56 PETRACCIA Anthony G OPTE POUR LES G O 1119 CAM (2 / 12) 14.3 00:41:52
94 00:42:48 THUEUX Vincent ES MAINTENON PIERRE ATHLE 1235 CAM (3 / 12) 14.0 00:42:44
102 00:43:25 ARRAS Axel CHARTRES METROPOLE NATATION 1128 CAM (4 / 12) 13.8 00:43:22
144 00:46:22 AMORFINI Dimitri S/L LUCE MAINVILLIERS PTT ATHL 1325 CAM (5 / 12) 12.9 00:46:14
147 00:46:25 MADENN Gilbert 1365 CAM (6 / 12) 13.0 00:46:04
170 00:47:17 HOURAN Maxence 1680 CAM (7 / 12) 12.6 00:47:16
208 00:48:58 SALIN Nathan 1446 CAM (8 / 12) 12.3 00:48:36
240 00:50:01 JAVAULT Kevin 1692 CAM (9 / 12) 12.0 00:49:40
63 00:40:36 GAUTIER Gaelle ECO CJF FLEURY LES AUBRAIS 1106 ESF (1 / 6) 14.7 00:40:35
200 00:48:41 VERMOOTE Gwendoline PACY SUR EURE 1511 ESF (2 / 6) 12.3 00:48:39
312 00:52:36 CAPERAN Pauline 1665 ESF (3 / 6) 11.4 00:52:29
498 00:58:27 MONDOT Clemence 1252 ESF (4 / 6) 10.2 00:58:21
529 00:59:47 DUJARDIN Amandine 1279 ESF (5 / 6) 10.1 00:59:16
550 01:01:03 LEGER Magnolia 1267 ESF (6 / 6) 9.8 01:00:45
4 00:33:38 MANGIN Jules 1745 ESM (1 / 13) 17.8 00:33:38
308 00:52:27 MENAGER Maxime 1015 ESM (10 / 13) 11.5 00:52:01
318 00:52:43 FUHRMAN Joseph 1639 ESM (11 / 13) 11.4 00:52:32
334 00:53:07 FERRER Alexandre CASAPUB 1465 ESM (12 / 13) 11.3 00:52:53
    Page / 26 Dernière